Time;durP1;ratioP1;P1;durP2;ratioP2;P2;SDS_P1;SDS_P2;PMS_P1;PMS_P2;Temp;Humidity;BMP_temperature;BMP_pressure;BME280_temperature;BME280_humidity;BME280_pressure;Samples;Min_cycle;Max_cycle;Signal;HPM_P1;HPM_P2
2022/12/11 00:02:13;;;;;;;26.27;16.20;;;;;;;1.76;70.78;95932.47;5014991;28;20053;-79
2022/12/11 00:04:41;;;;;;;22.98;14.68;;;;;;;1.77;71.30;95934.06;5015041;28;20398;-79
2022/12/11 00:07:09;;;;;;;22.20;14.70;;;;;;;1.75;70.73;95933.41;5014899;28;20424;-79
2022/12/11 00:09:37;;;;;;;23.60;15.35;;;;;;;1.72;71.04;95931.94;5014833;28;20049;-80
2022/12/11 00:12:07;;;;;;;24.30;15.85;;;;;;;1.74;71.66;95944.66;5015864;28;20450;-81
2022/12/11 00:14:35;;;;;;;22.73;15.32;;;;;;;1.75;70.89;95941.13;5016603;28;20049;-81
2022/12/11 00:17:03;;;;;;;25.13;16.02;;;;;;;1.76;70.87;95947.91;5015900;28;20129;-80
2022/12/11 00:19:31;;;;;;;26.48;15.77;;;;;;;1.76;70.58;95942.75;5016139;28;20401;-80
2022/12/11 00:21:59;;;;;;;26.33;16.15;;;;;;;1.76;70.19;95947.91;5015552;28;20409;-80
2022/12/11 00:24:27;;;;;;;25.27;16.73;;;;;;;1.76;70.49;95950.47;5015494;28;20049;-80
2022/12/11 00:26:55;;;;;;;24.15;15.10;;;;;;;1.74;70.38;95949.81;5038363;28;20034;-79
2022/12/11 00:29:24;;;;;;;21.80;14.80;;;;;;;1.72;71.50;95951.69;5037405;28;20286;-80
2022/12/11 00:31:52;;;;;;;22.85;15.27;;;;;;;1.70;70.96;95951.03;5022194;28;20405;-81
2022/12/11 00:34:20;;;;;;;24.05;15.40;;;;;;;1.68;71.35;95942.66;5014936;28;20054;-80
2022/12/11 00:36:47;;;;;;;24.90;15.43;;;;;;;1.67;71.62;95949.56;5014507;28;20423;-80
2022/12/11 00:39:15;;;;;;;25.45;15.85;;;;;;;1.66;72.15;95942.78;5013615;28;20058;-81
2022/12/11 00:41:42;;;;;;;25.98;15.57;;;;;;;1.67;71.92;95943.63;5014216;28;20128;-79
2022/12/11 00:44:10;;;;;;;23.55;15.93;;;;;;;1.67;71.75;95938.47;5014344;28;20539;-80
2022/12/11 00:46:39;;;;;;;26.02;17.35;;;;;;;1.65;71.00;95941.19;5014302;28;20527;-79
2022/12/11 00:49:06;;;;;;;23.77;15.60;;;;;;;1.60;69.91;95935.66;5013805;28;20061;-80
2022/12/11 00:51:34;;;;;;;28.92;16.33;;;;;;;1.57;70.81;95938.50;5014497;28;20504;-79
2022/12/11 00:54:01;;;;;;;24.15;16.48;;;;;;;1.58;71.30;95937.56;5012747;28;20050;-79
2022/12/11 00:56:29;;;;;;;26.45;16.98;;;;;;;1.57;71.46;95938.50;5012180;28;20057;-79
2022/12/11 00:58:57;;;;;;;23.42;16.17;;;;;;;1.58;71.00;95940.13;5011836;28;20055;-80
2022/12/11 01:01:25;;;;;;;23.98;15.55;;;;;;;1.61;70.76;95935.50;5012782;28;20064;-80
2022/12/11 01:03:54;;;;;;;25.40;16.30;;;;;;;1.65;71.29;95939.41;5012418;28;20085;-79
2022/12/11 01:06:24;;;;;;;26.27;15.80;;;;;;;1.66;70.76;95942.78;5011842;28;20057;-80
2022/12/11 01:10:22;;;;;;;27.42;16.80;;;;;;;1.68;71.38;95940.06;5012864;28;20050;-79
2022/12/11 01:11:41;;;;;;;26.25;16.17;;;;;;;1.69;71.18;95944.28;5013929;28;20054;-79
2022/12/11 01:14:13;;;;;;;24.92;15.90;;;;;;;1.69;70.95;95944.28;5013806;28;20053;-79
2022/12/11 01:16:40;;;;;;;24.75;16.98;;;;;;;1.70;70.62;95938.97;5013736;28;20046;-79
2022/12/11 01:19:09;;;;;;;24.75;15.85;;;;;;;1.71;71.08;95950.91;5013517;28;20050;-79
2022/12/11 01:21:37;;;;;;;23.35;14.55;;;;;;;1.74;70.85;95947.22;5013767;28;20057;-79
2022/12/11 01:24:05;;;;;;;23.88;14.93;;;;;;;1.74;70.19;95947.22;5014112;28;20049;-78
2022/12/11 01:26:33;;;;;;;23.55;14.95;;;;;;;1.73;70.20;95951.56;5013480;28;20061;-79
2022/12/11 01:29:00;;;;;;;24.33;15.27;;;;;;;1.72;70.28;95957.66;5013304;28;20112;-80
2022/12/11 01:31:28;;;;;;;25.67;15.35;;;;;;;1.72;70.17;95964.56;5013531;28;20050;-80
2022/12/11 01:33:56;;;;;;;21.40;14.00;;;;;;;1.73;70.00;95963.59;5013357;28;20534;-79
2022/12/11 01:36:25;;;;;;;20.50;13.82;;;;;;;1.74;69.64;95965.22;5013192;28;20046;-79
2022/12/11 01:38:53;;;;;;;20.08;13.52;;;;;;;1.73;69.13;95974.72;5013356;28;20452;-79
2022/12/11 01:41:21;;;;;;;21.05;14.07;;;;;;;1.74;69.31;95973.75;5013350;28;20054;-79
2022/12/11 01:44:04;;;;;;;19.98;12.68;;;;;;;1.72;69.69;95972.28;5013592;28;20447;-79
2022/12/11 01:46:34;;;;;;;20.98;13.07;;;;;;;1.72;69.01;95972.28;5013255;28;20125;-79
2022/12/11 01:49:05;;;;;;;21.40;13.30;;;;;;;1.74;68.80;95980.66;5012666;28;20523;-80
2022/12/11 01:51:39;;;;;;;22.92;13.38;;;;;;;1.72;69.65;95973.06;5013316;28;20042;-79
2022/12/11 01:54:11;;;;;;;20.02;12.95;;;;;;;1.74;70.09;95975.50;5013191;28;20045;-79
2022/12/11 01:56:42;;;;;;;19.52;12.15;;;;;;;1.71;69.28;95970.66;5013083;28;20045;-80
2022/12/11 01:59:10;;;;;;;20.15;12.52;;;;;;;1.68;69.92;95966.59;5012942;28;20405;-79
2022/12/11 02:01:41;;;;;;;20.58;12.70;;;;;;;1.69;69.60;95967.44;5013072;28;20054;-79
2022/12/11 02:04:10;;;;;;;14.68;10.38;;;;;;;1.68;69.64;95965.78;5012859;28;20500;-80
2022/12/11 02:06:40;;;;;;;16.23;11.35;;;;;;;1.69;70.05;95963.09;5013352;28;20053;-79
2022/12/11 02:09:12;;;;;;;16.63;11.45;;;;;;;1.69;69.45;95967.44;5016130;28;20060;-80
2022/12/11 02:11:50;;;;;;;18.02;11.95;;;;;;;1.67;67.93;95970.13;5016352;28;20081;-80
2022/12/11 02:14:28;;;;;;;14.25;10.43;;;;;;;1.65;66.96;95965.13;5015059;28;20100;-80
2022/12/11 02:17:00;;;;;;;18.80;12.52;;;;;;;1.63;67.80;95964.44;5011247;28;20054;-79
2022/12/11 02:19:49;;;;;;;19.45;13.20;;;;;;;1.62;68.70;95967.19;5012260;28;20527;-80
2022/12/11 02:22:27;;;;;;;19.30;12.93;;;;;;;1.62;69.75;95970.56;5012727;28;20050;-80
2022/12/11 02:25:04;;;;;;;21.45;13.60;;;;;;;1.61;70.63;95976.63;5013220;28;20046;-80
2022/12/11 02:27:40;;;;;;;18.92;13.15;;;;;;;1.63;70.75;95966.22;5012056;28;20052;-79
2022/12/11 02:30:12;;;;;;;18.13;11.95;;;;;;;1.64;70.63;95960.94;5013011;28;20046;-81
2022/12/11 02:32:45;;;;;;;19.40;12.83;;;;;;;1.63;70.66;95969.59;5011462;28;20053;-79
2022/12/11 02:35:15;;;;;;;;;;;;;;;1.67;71.09;95977.03;5011368;28;20050;-80
2022/12/11 02:37:46;;;;;;;18.45;12.48;;;;;;;1.63;70.61;95976.50;5010953;28;19921;-79
2022/12/11 02:40:17;;;;;;;19.35;13.60;;;;;;;1.62;70.76;95973.13;5010336;28;20050;-79
2022/12/11 02:42:48;;;;;;;18.13;12.55;;;;;;;1.63;70.95;95977.31;5010610;28;20523;-79
2022/12/11 02:45:19;;;;;;;16.52;11.20;;;;;;;1.64;69.75;95971.22;5010761;28;20053;-79
2022/12/11 02:47:47;;;;;;;17.13;11.57;;;;;;;1.67;69.63;95969.31;5011742;28;20046;-79
2022/12/11 02:50:19;;;;;;;15.57;10.48;;;;;;;1.67;68.79;95967.56;5012425;28;20050;-80
2022/12/11 02:52:50;;;;;;;16.80;11.02;;;;;;;1.67;68.45;95964.19;5012430;28;20054;-80
2022/12/11 02:55:18;;;;;;;16.27;11.10;;;;;;;1.63;68.88;95969.59;5012540;28;20054;-79
2022/12/11 02:57:51;;;;;;;17.05;10.77;;;;;;;1.64;69.49;95968.66;5012210;28;20042;-79
2022/12/11 03:00:21;;;;;;;15.15;10.57;;;;;;;1.65;69.04;95974.59;5012023;28;20046;-79
2022/12/11 03:02:49;;;;;;;16.75;10.95;;;;;;;1.65;68.82;95974.59;5012600;28;20076;-79
2022/12/11 03:05:16;;;;;;;14.63;10.68;;;;;;;1.66;68.85;95973.63;5012429;28;20046;-78
2022/12/11 03:07:45;;;;;;;15.00;10.60;;;;;;;1.67;69.22;95979.59;5011980;28;20416;-78
2022/12/11 03:10:17;;;;;;;15.75;10.65;;;;;;;1.66;67.37;95986.50;5012437;28;20050;-79
2022/12/11 03:12:49;;;;;;;16.08;10.75;;;;;;;1.63;68.05;95974.72;5012884;28;20423;-79
2022/12/11 03:15:29;;;;;;;17.75;11.60;;;;;;;1.61;67.86;95971.50;5012579;28;20129;-79
2022/12/11 03:18:02;;;;;;;17.67;12.27;;;;;;;1.62;67.98;95968.00;5012434;28;20069;-79
2022/12/11 03:20:36;;;;;;;16.55;12.20;;;;;;;1.60;67.72;95964.75;5012430;28;20050;-80
2022/12/11 03:23:16;;;;;;;17.15;11.55;;;;;;;1.58;67.88;95964.06;5012176;28;20072;-80
2022/12/11 03:25:50;;;;;;;15.45;11.60;;;;;;;1.59;67.84;95975.16;5012043;28;20076;-79
2022/12/11 03:28:20;;;;;;;14.48;10.48;;;;;;;1.57;67.49;95965.00;5011986;28;20072;-79
2022/12/11 03:30:53;;;;;;;17.75;11.57;;;;;;;1.57;67.36;95967.56;5012105;28;20058;-80
2022/12/11 03:33:25;;;;;;;16.85;11.23;;;;;;;1.57;67.83;95977.88;5012284;28;20045;-79
2022/12/11 03:35:55;;;;;;;15.30;10.52;;;;;;;1.57;66.97;95972.72;5011920;28;20068;-79
2022/12/11 03:38:28;;;;;;;15.90;11.00;;;;;;;1.57;67.15;95975.28;5013942;28;20049;-79
2022/12/11 03:41:00;;;;;;;15.60;9.75;;;;;;;1.54;66.46;95975.59;5016120;28;20427;-80
2022/12/11 03:43:30;;;;;;;16.50;10.00;;;;;;;1.52;66.75;95972.34;5016172;28;20133;-79
2022/12/11 03:46:01;;;;;;;16.40;11.25;;;;;;;1.51;67.42;95965.59;5014397;28;20050;-78
2022/12/11 03:48:32;;;;;;;16.50;10.57;;;;;;;1.48;66.78;95965.88;5013356;28;20050;-79
2022/12/11 03:51:03;;;;;;;14.85;10.98;;;;;;;1.48;66.27;95968.44;5013599;28;20050;-80
2022/12/11 03:53:33;;;;;;;17.48;10.90;;;;;;;1.44;65.62;95967.91;5013409;28;20050;-79
2022/12/11 03:56:04;;;;;;;16.95;11.57;;;;;;;1.42;66.18;95969.81;5013413;28;20466;-79
2022/12/11 03:58:32;;;;;;;18.10;12.50;;;;;;;1.42;66.99;95976.69;5013201;28;20046;-79
2022/12/11 04:01:01;;;;;;;18.77;11.18;;;;;;;1.42;67.80;95966.41;5014332;28;20141;-78
2022/12/11 04:03:28;;;;;;;18.25;11.48;;;;;;;1.42;68.15;95971.56;5033417;28;20042;-79
2022/12/11 04:05:56;;;;;;;17.02;11.68;;;;;;;1.42;68.13;95969.00;5039253;28;20080;-80
2022/12/11 04:08:24;;;;;;;15.95;10.73;;;;;;;1.43;67.62;95963.72;5030694;28;20052;-79
2022/12/11 04:11:33;;;;;;;13.82;9.95;;;;;;;1.44;67.84;95961.94;5015438;28;20088;-80
2022/12/11 04:13:41;;;;;;;14.68;9.73;;;;;;;1.42;66.71;95956.13;5014775;28;20046;-80
2022/12/11 04:16:09;;;;;;;16.23;10.48;;;;;;;1.40;66.60;95963.19;5014862;28;20059;-80
2022/12/11 04:24:16;;;;;;;13.45;8.48;;;;;;;1.34;67.04;95953.47;5014717;28;20054;-79
2022/12/11 04:26:45;;;;;;;14.35;9.65;;;;;;;1.31;67.04;95951.19;5014725;28;20052;-79
2022/12/11 04:29:13;;;;;;;13.35;9.30;;;;;;;1.27;66.76;95945.53;5013955;28;20046;-80
2022/12/11 04:31:42;;;;;;;14.70;9.52;;;;;;;1.27;66.76;95950.66;5014954;28;20046;-80
2022/12/11 04:34:09;;;;;;;15.43;8.82;;;;;;;1.28;67.45;95954.84;5014641;28;20064;-79
2022/12/11 04:36:37;;;;;;;12.95;8.80;;;;;;;1.26;68.16;95948.22;5014525;28;20049;-80
2022/12/11 04:39:06;;;;;;;12.82;9.25;;;;;;;1.27;67.50;95957.53;5014218;28;20054;-79
2022/12/11 04:41:33;;;;;;;14.55;9.02;;;;;;;1.25;67.10;95955.13;5014469;28;20065;-79
2022/12/11 04:44:01;;;;;;;13.32;9.10;;;;;;;1.25;68.02;95957.69;5014356;28;20058;-79
2022/12/11 04:46:29;;;;;;;13.43;8.57;;;;;;;1.26;67.37;95955.94;5014405;28;20058;-80
2022/12/11 04:48:59;;;;;;;12.13;8.77;;;;;;;1.26;66.58;95961.06;5017288;28;20419;-80
2022/12/11 04:51:27;;;;;;;13.35;9.75;;;;;;;1.27;67.45;95949.84;5015765;28;20495;-79
2022/12/11 04:53:55;;;;;;;11.85;8.57;;;;;;;1.26;66.55;95946.47;5015662;28;20053;-80
2022/12/11 04:56:23;;;;;;;14.43;9.18;;;;;;;1.26;66.52;95955.94;5014598;28;20050;-79
2022/12/11 04:58:50;;;;;;;12.48;9.10;;;;;;;1.23;67.11;95950.13;5013935;28;20057;-79
2022/12/11 05:01:20;;;;;;;13.88;9.50;;;;;;;1.22;67.25;95956.22;5014326;28;20050;-79
2022/12/11 05:03:47;;;;;;;11.70;8.60;;;;;;;1.21;67.36;95954.59;5014074;28;20057;-79
2022/12/11 05:06:17;;;;;;;13.07;9.27;;;;;;;1.19;66.99;95955.69;5014147;28;20050;-79
2022/12/11 05:08:45;;;;;;;12.30;9.20;;;;;;;1.18;67.91;95960.03;5013661;28;20050;-79
2022/12/11 05:11:14;;;;;;;13.55;9.13;;;;;;;1.20;68.11;95957.28;5014006;28;20052;-79
2022/12/11 05:13:42;;;;;;;12.93;9.30;;;;;;;1.20;67.27;95963.25;5014108;28;20057;-80
2022/12/11 05:16:12;;;;;;;14.93;9.57;;;;;;;1.21;67.05;95959.72;5013651;28;20069;-79
2022/12/11 05:18:40;;;;;;;11.68;9.18;;;;;;;1.22;67.65;95952.81;5013367;28;20049;-80
2022/12/11 05:21:10;;;;;;;15.15;10.38;;;;;;;1.23;68.22;95960.41;5014031;28;20480;-79
2022/12/11 05:23:39;;;;;;;12.68;9.57;;;;;;;1.23;68.57;95957.84;5013912;28;20053;-80
2022/12/11 05:26:08;;;;;;;12.43;8.98;;;;;;;1.21;67.97;95954.59;5014446;28;20073;-79
2022/12/11 05:28:38;;;;;;;15.23;9.45;;;;;;;1.21;68.12;95953.78;5013281;28;20420;-79
2022/12/11 05:31:08;;;;;;;15.05;9.85;;;;;;;1.20;68.56;95958.13;5013856;28;20504;-79
2022/12/11 05:33:36;;;;;;;12.70;9.65;;;;;;;1.20;68.19;95952.97;5013685;28;20042;-80
2022/12/11 05:36:04;;;;;;;13.27;9.43;;;;;;;1.19;67.72;95961.63;5013263;28;20046;-79
2022/12/11 05:38:31;;;;;;;15.98;10.18;;;;;;;1.17;67.58;95955.00;5012955;28;20653;-80
2022/12/11 05:41:02;;;;;;;14.25;9.88;;;;;;;1.16;69.27;95954.22;5013451;28;20050;-79
2022/12/11 05:43:32;;;;;;;15.95;10.57;;;;;;;1.18;68.82;95948.91;5013573;28;20053;-79
2022/12/11 05:46:05;;;;;;;13.65;9.95;;;;;;;1.18;68.28;95949.75;5013365;28;20427;-79
2022/12/11 05:48:33;;;;;;;17.83;10.00;;;;;;;1.19;67.82;95942.84;5012786;28;20049;-79
2022/12/11 05:51:02;;;;;;;12.63;9.10;;;;;;;1.20;67.72;95942.72;5013412;28;20041;-79
2022/12/11 05:53:30;;;;;;;11.93;8.80;;;;;;;1.20;68.43;95937.56;5013375;28;20057;-79
2022/12/11 05:56:03;;;;;;;11.73;9.05;;;;;;;1.19;68.11;95935.94;5016603;28;20058;-80
2022/12/11 05:58:31;;;;;;;14.48;9.93;;;;;;;1.19;68.46;95927.44;5015540;28;20057;-80
2022/12/11 06:00:59;;;;;;;13.52;9.93;;;;;;;1.17;68.26;95932.69;5014803;28;20050;-79
2022/12/11 06:03:27;;;;;;;15.80;11.50;;;;;;;1.16;68.44;95931.09;5013223;28;20058;-80
2022/12/11 06:05:54;;;;;;;13.80;10.48;;;;;;;1.13;67.70;95933.13;5013054;28;20053;-80
2022/12/11 06:08:22;;;;;;;14.32;10.18;;;;;;;1.10;67.28;95936.78;5012716;28;20619;-80
2022/12/11 06:10:50;;;;;;;14.80;10.32;;;;;;;1.11;67.54;95935.00;5012886;28;20057;-80
2022/12/11 06:13:19;;;;;;;13.10;10.35;;;;;;;1.10;67.57;95931.63;5013389;28;20050;-79
2022/12/11 06:15:47;;;;;;;14.55;9.60;;;;;;;1.11;67.36;95929.88;5012729;28;20069;-79
2022/12/11 06:18:14;;;;;;;12.10;9.20;;;;;;;1.11;68.39;95922.97;5012528;28;20050;-80
2022/12/11 06:20:42;;;;;;;15.57;10.40;;;;;;;1.11;68.13;95933.25;5012722;28;20041;-79
2022/12/11 06:23:09;;;;;;;15.98;11.23;;;;;;;1.10;68.09;95928.28;5012851;28;20054;-79
2022/12/11 06:25:38;;;;;;;13.27;9.90;;;;;;;1.07;67.79;95928.53;5012616;28;20054;-79
2022/12/11 06:28:06;;;;;;;13.55;9.63;;;;;;;1.06;68.35;95927.72;5012441;28;20049;-79
2022/12/11 06:30:35;;;;;;;16.08;9.77;;;;;;;1.08;68.61;95928.41;5012731;28;20056;-79
2022/12/11 06:33:05;;;;;;;12.57;9.85;;;;;;;1.08;68.33;95923.25;5012719;28;20057;-79
2022/12/11 06:35:33;;;;;;;13.88;10.23;;;;;;;1.08;68.78;95905.28;5012831;28;20054;-79
2022/12/11 06:38:09;;;;;;;14.57;9.88;;;;;;;1.08;67.29;95913.00;5012614;28;20058;-79
2022/12/11 06:40:37;;;;;;;14.02;10.05;;;;;;;1.09;68.56;95914.59;5012263;28;20050;-79
2022/12/11 06:43:04;;;;;;;15.05;10.18;;;;;;;1.10;68.49;95921.38;5012464;28;20056;-79
2022/12/11 06:45:32;;;;;;;15.13;10.13;;;;;;;1.06;67.59;95917.44;5012902;28;20062;-78
2022/12/11 06:48:01;;;;;;;14.23;10.35;;;;;;;1.05;69.01;95922.72;5012571;28;20057;-79
2022/12/11 06:50:28;;;;;;;14.82;10.57;;;;;;;1.05;68.35;95927.84;5012552;28;20488;-80
2022/12/11 06:52:56;;;;;;;13.40;10.20;;;;;;;1.03;68.01;95920.31;5012936;28;20057;-79
2022/12/11 06:55:24;;;;;;;13.45;9.35;;;;;;;1.05;68.04;95920.97;5012183;28;20050;-78
2022/12/11 06:57:51;;;;;;;14.00;10.10;;;;;;;1.06;69.04;95909.75;5012714;28;20058;-79
2022/12/11 07:00:19;;;;;;;14.52;11.13;;;;;;;1.11;69.69;95917.84;5012570;28;20042;-79
2022/12/11 07:02:47;;;;;;;15.95;10.77;;;;;;;1.12;68.90;95924.59;5012609;28;20475;-79
2022/12/11 07:05:16;;;;;;;16.20;12.48;;;;;;;1.10;67.37;95926.50;5012381;28;20046;-79
2022/12/11 07:07:44;;;;;;;16.08;11.25;;;;;;;1.05;66.70;95926.13;5014603;28;20049;-79
2022/12/11 07:10:11;;;;;;;16.05;11.38;;;;;;;1.03;68.14;95933.16;5012215;28;20104;-80
2022/12/11 07:12:39;;;;;;;19.05;12.60;;;;;;;1.07;68.98;95936.22;5014193;28;20050;-80
2022/12/11 07:15:07;;;;;;;17.08;12.25;;;;;;;1.08;69.07;95930.16;5016295;28;20053;-80
2022/12/11 07:17:35;;;;;;;16.98;11.95;;;;;;;1.10;68.54;95931.63;5043077;22;20042;-77
2022/12/11 07:20:04;;;;;;;17.00;11.77;;;;;;;1.10;68.78;95931.63;5035695;28;20500;-77
2022/12/11 07:22:33;;;;;;;18.80;12.35;;;;;;;1.11;68.73;95935.00;5036286;28;20056;-77
2022/12/11 07:25:01;;;;;;;17.00;11.77;;;;;;;1.13;69.32;95931.34;5036027;28;20144;-77
2022/12/11 07:27:29;;;;;;;15.95;11.63;;;;;;;1.14;68.64;95940.69;5036038;28;20057;-77
2022/12/11 07:29:57;;;;;;;14.90;10.93;;;;;;;1.14;68.17;95942.47;5035970;28;20055;-77
2022/12/11 07:32:25;;;;;;;19.27;12.75;;;;;;;1.14;68.86;95932.19;5037578;28;20057;-79
2022/12/11 07:34:53;;;;;;;18.40;12.05;;;;;;;1.14;69.12;95932.97;5036883;28;20400;-80
2022/12/11 07:37:20;;;;;;;19.77;12.68;;;;;;;1.14;68.48;95938.13;5037897;28;20114;-79
2022/12/11 07:39:55;;;;;;;17.60;12.15;;;;;;;1.12;68.60;95932.31;5035321;28;20124;-79
2022/12/11 07:42:23;;;;;;;16.48;11.57;;;;;;;1.08;68.22;95933.53;5036266;28;20053;-79
2022/12/11 07:44:50;;;;;;;17.17;12.18;;;;;;;1.04;68.04;95932.19;5036205;28;20045;-80
2022/12/11 07:47:18;;;;;;;15.93;11.32;;;;;;;1.00;67.66;95939.34;5036711;28;20049;-80
2022/12/11 07:49:45;;;;;;;17.30;12.25;;;;;;;1.00;67.94;95941.13;5035891;28;20423;-78
2022/12/11 07:54:47;;;;;;;18.80;12.82;;;;;;;1.04;68.45;95927.06;5053868;28;20552;-77
2022/12/11 07:57:16;;;;;;;16.67;11.80;;;;;;;1.03;68.43;95935.72;5055531;28;20052;-77
2022/12/11 07:59:44;;;;;;;18.40;12.10;;;;;;;1.03;68.68;95936.53;5054872;28;20049;-77
2022/12/11 08:02:11;;;;;;;21.15;12.63;;;;;;;1.03;68.40;95935.72;5055453;28;20049;-78
2022/12/11 08:04:39;;;;;;;18.40;12.27;;;;;;;1.03;68.87;95936.53;5055445;28;20052;-77
2022/12/11 08:07:06;;;;;;;20.00;12.68;;;;;;;1.02;68.30;95934.09;5055294;28;20049;-78
2022/12/11 08:09:34;;;;;;;20.08;12.32;;;;;;;1.01;68.21;95937.63;5054951;28;20049;-78
2022/12/11 08:12:02;;;;;;;19.35;12.38;;;;;;;1.03;69.19;95940.84;5054917;28;20048;-78
2022/12/11 08:14:31;;;;;;;16.05;11.65;;;;;;;1.04;68.54;95942.47;5055127;28;20053;-78
2022/12/11 08:16:59;;;;;;;17.33;11.43;;;;;;;1.05;68.49;95933.00;5055045;28;20049;-78
2022/12/11 08:19:27;;;;;;;17.60;11.93;;;;;;;1.05;68.41;95938.13;5054507;28;20098;-78
2022/12/11 08:21:55;;;;;;;21.30;12.25;;;;;;;1.04;67.80;95939.91;5054892;28;20052;-78
2022/12/11 08:24:22;;;;;;;16.77;11.27;;;;;;;1.01;67.51;95943.56;5053870;28;20064;-78
2022/12/11 08:26:50;;;;;;;17.42;12.15;;;;;;;1.00;67.87;95943.69;5054916;28;20052;-79
2022/12/11 08:29:17;;;;;;;17.33;12.02;;;;;;;1.00;68.18;95941.13;5054657;28;20053;-77
2022/12/11 08:31:46;;;;;;;20.15;13.30;;;;;;;1.00;68.54;95941.91;5054967;28;20049;-78
2022/12/11 08:34:13;;;;;;;19.00;12.80;;;;;;;1.02;68.15;95942.59;5055290;28;20075;-78
2022/12/11 08:36:42;;;;;;;18.50;11.95;;;;;;;0.99;67.76;95939.50;5054895;28;20049;-78
2022/12/11 08:39:10;;;;;;;18.98;12.43;;;;;;;0.94;67.62;95937.38;5054530;28;20053;-78
2022/12/11 08:41:37;;;;;;;19.13;13.00;;;;;;;0.93;67.72;95932.34;5054598;28;20041;-77
2022/12/11 08:44:05;;;;;;;96.15;49.33;;;;;;;0.93;68.35;95937.50;5054582;28;20510;-78
2022/12/11 08:46:36;;;;;;;25.83;16.48;;;;;;;0.95;68.00;95933.03;5064386;28;20052;-78
2022/12/11 08:49:05;;;;;;;23.73;12.55;;;;;;;0.93;67.93;95937.50;5054186;28;20135;-77
2022/12/11 08:51:33;;;;;;;20.52;12.63;;;;;;;0.90;68.35;95933.44;5054255;28;20049;-78
2022/12/11 08:54:01;;;;;;;19.90;13.00;;;;;;;0.89;68.40;95933.56;5049415;28;20049;-78
2022/12/11 08:56:29;;;;;;;21.05;13.70;;;;;;;0.91;68.91;95941.94;5035015;28;20049;-78
2022/12/11 08:58:59;;;;;;;18.40;12.93;;;;;;;0.92;68.73;95938.41;5034059;28;20431;-78
2022/12/11 09:01:28;;;;;;;19.63;12.93;;;;;;;0.94;68.63;95939.09;5034596;28;20053;-78
2022/12/11 09:03:56;;;;;;;17.60;12.65;;;;;;;0.96;69.16;95944.91;5034480;28;20414;-78
2022/12/11 09:06:27;;;;;;;19.83;13.18;;;;;;;0.98;69.18;95940.44;5034545;28;20053;-78
2022/12/11 09:08:56;;;;;;;21.08;13.88;;;;;;;0.99;68.66;95940.31;5034080;28;20053;-78
2022/12/11 09:11:26;;;;;;;18.95;12.77;;;;;;;1.01;68.68;95937.63;5033920;28;20503;-78
2022/12/11 09:13:53;;;;;;;22.15;14.75;;;;;;;1.01;69.25;95943.56;5033976;28;20053;-78
2022/12/11 09:16:23;;;;;;;41.08;21.33;;;;;;;1.03;69.57;95938.28;5034025;28;20132;-78
2022/12/11 09:18:53;;;;;;;31.02;18.63;;;;;;;1.04;68.84;95942.47;5033857;28;20049;-78
2022/12/11 09:21:22;;;;;;;25.90;15.70;;;;;;;1.03;68.48;95936.53;5034036;28;20565;-78
2022/12/11 09:23:52;;;;;;;21.48;14.98;;;;;;;1.03;69.48;95943.44;5034222;28;20053;-78
2022/12/11 09:26:20;;;;;;;19.00;12.50;;;;;;;1.03;68.89;95943.44;5034254;28;20064;-78
2022/12/11 09:28:50;;;;;;;19.02;12.25;;;;;;;1.02;68.63;95928.94;5033754;28;20053;-78
2022/12/11 09:31:22;;;;;;;19.33;12.05;;;;;;;1.02;68.86;95928.94;5033824;28;20057;-78
2022/12/11 09:33:50;;;;;;;16.73;11.10;;;;;;;1.00;68.22;95931.66;5034234;28;20132;-78
2022/12/11 09:36:18;;;;;;;13.35;9.82;;;;;;;0.99;67.50;95932.59;5033172;28;20462;-78
2022/12/11 09:38:46;;;;;;;16.63;11.05;;;;;;;0.98;67.80;95936.13;5033326;28;20531;-78
2022/12/11 09:41:34;;;;;;;18.42;11.32;;;;;;;0.99;67.11;95930.03;5034119;28;20053;-78
2022/12/11 09:44:12;;;;;;;16.75;11.98;;;;;;;0.99;67.85;95932.59;5054174;28;20110;-79
2022/12/11 09:46:41;;;;;;;19.63;11.75;;;;;;;1.00;67.77;95931.66;5048518;28;20487;-80
2022/12/11 09:49:24;;;;;;;24.08;15.27;;;;;;;1.01;68.09;95929.91;5034029;28;20049;-80
2022/12/11 09:52:02;;;;;;;34.10;19.90;;;;;;;1.04;68.13;95929.63;5033647;28;20053;-79
2022/12/11 09:54:29;;;;;;;92.80;52.30;;;;;;;1.06;67.76;95930.28;5033781;28;20431;-79
2022/12/11 09:57:09;;;;;;;32.80;19.38;;;;;;;1.06;67.54;95926.94;5044660;28;20053;-80
2022/12/11 09:59:42;;;;;;;23.15;14.13;;;;;;;1.05;67.78;95923.56;5033028;28;20049;-80
2022/12/11 10:02:25;;;;;;;18.30;12.23;;;;;;;1.05;68.47;95915.84;5042554;28;20057;-80
2022/12/11 10:05:03;;;;;;;17.30;11.70;;;;;;;1.04;67.57;95919.34;5054497;28;20131;-80
2022/12/11 10:07:35;;;;;;;18.83;11.98;;;;;;;1.02;67.88;95918.69;5053129;28;20052;-80
2022/12/11 10:10:14;;;;;;;18.70;12.93;;;;;;;1.03;68.07;95917.75;5052408;28;20060;-81
2022/12/11 10:12:54;;;;;;;18.40;12.90;;;;;;;1.03;68.59;95920.31;5050040;28;20071;-80
2022/12/11 10:15:35;;;;;;;19.40;12.55;;;;;;;1.02;68.42;95909.22;5052958;28;20048;-80
2022/12/11 10:18:06;;;;;;;17.88;11.85;;;;;;;1.04;68.61;95911.66;5052656;28;20060;-79
2022/12/11 10:20:38;;;;;;;18.25;11.93;;;;;;;1.06;68.52;95914.88;5051586;28;20069;-79
2022/12/11 10:23:09;;;;;;;17.63;11.57;;;;;;;1.08;68.90;95907.84;5037270;28;20045;-78
2022/12/11 10:25:44;;;;;;;17.55;11.93;;;;;;;1.10;68.83;95913.66;5052638;28;20422;-79
2022/12/11 10:28:15;;;;;;;21.50;12.40;;;;;;;1.11;67.90;95920.41;5052753;28;20127;-79
2022/12/11 10:30:48;;;;;;;18.10;11.73;;;;;;;1.10;68.27;95903.38;5050920;28;20056;-80
2022/12/11 10:33:21;;;;;;;15.27;10.70;;;;;;;1.07;66.30;95906.22;5051055;28;20132;-80
2022/12/11 10:35:51;;;;;;;17.88;11.20;;;;;;;1.02;66.71;95898.94;5033340;28;20049;-80
2022/12/11 10:38:25;;;;;;;18.50;12.52;;;;;;;1.00;67.22;95895.69;5033212;28;20057;-79
2022/12/11 10:40:55;;;;;;;17.33;11.25;;;;;;;0.99;67.24;95898.41;5047135;28;20042;-80
2022/12/11 10:43:35;;;;;;;18.80;11.63;;;;;;;0.98;67.87;95896.78;5033506;28;20049;-79
2022/12/11 10:46:04;;;;;;;18.13;11.68;;;;;;;0.98;67.55;95891.66;5052852;28;20049;-79
2022/12/11 10:48:31;;;;;;;27.67;15.95;;;;;;;0.99;67.71;95883.81;5051357;28;20483;-80
2022/12/11 10:51:03;;;;;;;29.67;17.38;;;;;;;1.01;67.53;95881.13;5052019;28;20052;-80
2022/12/11 10:53:33;;;;;;;107.00;55.25;;;;;;;1.02;68.08;95882.72;5041730;28;20061;-81
2022/12/11 10:56:01;;;;;;;23.98;13.05;;;;;;;1.03;67.66;95882.59;5032364;28;20058;-80
2022/12/11 10:58:32;;;;;;;17.25;11.57;;;;;;;1.07;67.90;95887.44;5032735;28;20049;-80
2022/12/11 11:01:07;;;;;;;14.02;9.48;;;;;;;1.09;67.86;95881.19;5033152;28;20064;-79
2022/12/11 11:03:40;;;;;;;16.35;10.52;;;;;;;1.10;67.98;95871.75;5034955;28;20057;-79
2022/12/11 11:06:16;;;;;;;16.52;10.65;;;;;;;1.13;68.22;95874.03;5038154;28;20045;-79
2022/12/11 11:08:45;;;;;;;16.60;10.43;;;;;;;1.12;68.02;95873.22;5052503;28;20048;-79
2022/12/11 11:11:21;;;;;;;14.98;9.80;;;;;;;1.15;67.69;95867.81;5044974;28;20053;-81
2022/12/11 11:13:50;;;;;;;15.00;10.10;;;;;;;1.16;67.46;95864.31;5033051;28;20049;-80
2022/12/11 11:16:21;;;;;;;16.85;10.82;;;;;;;1.17;67.62;95859.97;5039597;28;20045;-80
2022/12/11 11:18:53;;;;;;;15.30;10.25;;;;;;;1.18;67.98;95862.41;5051954;28;20081;-79
2022/12/11 11:21:23;;;;;;;17.77;10.60;;;;;;;1.19;67.61;95851.16;5034831;28;20065;-81
2022/12/11 11:23:51;;;;;;;20.98;12.63;;;;;;;1.20;67.31;95847.66;5052158;28;20049;-79
2022/12/11 11:26:21;;;;;;;42.60;22.73;;;;;;;1.20;67.25;95850.22;5036252;28;20053;-79
2022/12/11 11:28:52;;;;;;;27.13;15.32;;;;;;;1.21;67.02;95851.81;5032152;28;20105;-78
2022/12/11 11:31:30;;;;;;;25.15;14.10;;;;;;;1.19;67.35;95846.03;5032477;28;20284;-79
2022/12/11 11:34:02;;;;;;;17.23;10.57;;;;;;;1.21;67.70;95840.75;5051611;28;20414;-79
2022/12/11 11:36:31;;;;;;;14.43;9.50;;;;;;;1.22;67.30;95838.06;5050262;28;20453;-79
2022/12/11 11:39:18;;;;;;;13.98;9.68;;;;;;;1.26;67.10;95837.75;5052057;28;20049;-79
2022/12/11 11:41:52;;;;;;;16.67;10.35;;;;;;;1.27;67.08;95840.19;5052091;28;20423;-79
2022/12/11 11:44:28;;;;;;;15.15;10.20;;;;;;;1.29;67.17;95840.03;5052051;28;20045;-79
2022/12/11 11:47:04;;;;;;;14.98;9.63;;;;;;;1.31;67.32;95831.25;5046659;28;20064;-79
2022/12/11 11:49:46;;;;;;;16.98;9.85;;;;;;;1.35;67.71;95836.88;5032954;28;20492;-79